Dublin, Ireland

11:55 PM IST on May 25, 2017 (GMT +0100)
Dublin International

Weather History for EIDW - November, 2014

Change the Weather History Date:

Friday, November 21, 2014

  Actual Average Record
Temperature  
Mean Temperature 50 °F -  
Max Temperature 55 °F 48 °F 55 °F (1998)
Min Temperature 44 °F 39 °F 26 °F (2005)
Degree Days  
Heating Degree Days 16    
Moisture  
Dew Point 47 °F    
Average Humidity 89    
Maximum Humidity 100    
Minimum Humidity 72    
Precipitation  
Precipitation 0.31 in 0.09 in - ()
Sea Level Pressure  
Sea Level Pressure 29.86 in    
Wind  
Wind Speed 15 mph ()    
Max Wind Speed 25 mph    
Max Gust Speed 34 mph    
Visibility 6.5 miles    
Events Rain    
Averages and records for this station are not official NWS values.
T = Trace of Precipitation, MM = Missing Value Source: Averaged Metar Reports

Daily Weather History Graph

Daily Weather History Graph

Search for Another Location

Airport or City:

Trip Planner

Search our weather history database for the weather conditions in past years. The results will help you decide how hot, cold, wet, or windy it might be!

Date:

Astronomy

Nov. 21, 2014 Rise Set
Actual Time 8:00 AM GMT 4:20 PM GMT
Civil Twilight 7:21 AM GMT 5:00 PM GMT
Nautical Twilight 6:37 AM GMT 5:43 PM GMT
Astronomical Twilight 5:56 AM GMT 6:24 PM GMT
Moon 6:29 AM GMT (11/21) 4:05 PM GMT (11/21)
Length of Visible Light 9h 39m
Length of Day
8h 19m
Waning Crescent, 1% of the Moon is Illuminated
Nov 21
Waning Crescent
Nov 22
New
Nov 29
First Quarter
Dec 6
Full
Dec 14
Last Quarter

Hourly Weather History & Observations

Time (GMT) Temp. Dew Point Humidity Pressure Visibility Wind Dir Wind Speed Gust Speed Precip Events Conditions
12:00 AM 49 °F 46 °F 87% 30.15 in 9 mi SE 11.2 mph - -   Mist
12:00 AM 48.2 °F 46.4 °F 93% 30.12 in 6.2 mi ESE 9.2 mph - N/A   Mostly Cloudy
12:30 AM 50.0 °F 46.4 °F 87% 30.12 in 6.2 mi SE 9.2 mph - N/A   Mostly Cloudy
1:00 AM 49 °F 46 °F 83% 30.13 in 9 mi SE 13.4 mph - -   Mist
1:00 AM 48.2 °F 44.6 °F 87% 30.12 in 6.2 mi SE 13.8 mph - N/A   Mostly Cloudy
1:30 AM 48.2 °F 44.6 °F 87% 30.09 in 6.2 mi SE 15.0 mph - N/A   Mostly Cloudy
2:00 AM 49 °F 45 °F 80% 30.11 in 9 mi SE 11.2 mph - -   Mist
2:00 AM 48.2 °F 44.6 °F 87% 30.09 in 6.2 mi SE 12.7 mph - N/A   Mostly Cloudy
2:30 AM 48.2 °F 44.6 °F 87% 30.09 in 6.2 mi SE 13.8 mph - N/A   Mostly Cloudy
3:00 AM 48 °F 44 °F 81% 30.09 in 9 mi ESE 15.7 mph - -   Mist
3:00 AM 48.2 °F 44.6 °F 87% 30.06 in 6.2 mi ESE 13.8 mph - N/A   Mostly Cloudy
3:30 AM 48.2 °F 42.8 °F 82% 30.06 in 6.2 mi SE 13.8 mph - N/A   Mostly Cloudy
4:00 AM 48 °F 44 °F 80% 30.06 in 9 mi ESE 13.4 mph - -   Mist
4:00 AM 48.2 °F 44.6 °F 87% 30.04 in 6.2 mi SE 12.7 mph - N/A   Mostly Cloudy
4:30 AM 48.2 °F 44.6 °F 87% 30.04 in 6.2 mi ESE 13.8 mph - N/A   Mostly Cloudy
5:00 AM 49 °F 44 °F 77% 30.05 in 9 mi ESE 15.7 mph - -   Mist
5:00 AM 48.2 °F 44.6 °F 87% 30.04 in 6.2 mi ESE 17.3 mph - N/A   Mostly Cloudy
5:30 AM 48.2 °F 44.6 °F 87% 30.04 in 6.2 mi ESE 13.8 mph - N/A   Mostly Cloudy
6:00 AM 49 °F 43 °F 74% 30.03 in 9 mi ESE 15.7 mph - -   Mist
6:00 AM 48.2 °F 42.8 °F 82% 30.01 in 6.2 mi ESE 16.1 mph - N/A   Mostly Cloudy
6:30 AM 48.2 °F 42.8 °F 82% 30.01 in 6.2 mi ESE 15.0 mph - N/A   Mostly Cloudy
7:00 AM 49 °F 43 °F 73% 29.99 in 9 mi ESE 15.7 mph - -   Mist
7:00 AM 48.2 °F 42.8 °F 82% 29.98 in 6.2 mi ESE 16.1 mph - N/A   Mostly Cloudy
7:30 AM 48.2 °F 42.8 °F 82% 29.95 in 6.2 mi ESE 17.3 mph - N/A   Mostly Cloudy
8:00 AM 49 °F 44 °F 75% 29.97 in 9 mi ESE 20.1 mph - -   Mist
8:00 AM 48.2 °F 42.8 °F 82% 29.95 in 6.2 mi ESE 20.7 mph - N/A   Mostly Cloudy
8:30 AM 48.2 °F 42.8 °F 82% 29.95 in 6.2 mi SE 19.6 mph - N/A   Mostly Cloudy
9:00 AM 49 °F 43 °F 72% 29.95 in 11 mi ESE 22.4 mph - -   Overcast
9:00 AM 50.0 °F 42.8 °F 76% 29.95 in 6.2 mi ESE 21.9 mph 33.4 mph N/A   Overcast
9:30 AM 48.2 °F 44.6 °F 87% 29.92 in 6.2 mi ESE 20.7 mph - N/A   Overcast
10:00 AM 49 °F 44 °F 76% 29.92 in 11 mi ESE 20.1 mph - - Rain Light Drizzle
10:00 AM 48.2 °F 42.8 °F 82% 29.89 in 6.2 mi SE 18.4 mph - N/A   Overcast
10:30 AM 48.2 °F 44.6 °F 87% 29.89 in 6.2 mi SE 20.7 mph - N/A   Overcast
11:00 AM 48 °F 45 °F 86% 29.91 in 5 mi SE 17.9 mph - - Rain Light Rain
11:00 AM 48.2 °F 44.6 °F 87% 29.89 in 5.0 mi SE 16.1 mph - N/A Rain Light Rain
11:30 AM 48.2 °F 46.4 °F 93% 29.86 in 4.3 mi ESE 18.4 mph - N/A Rain Rain
12:00 PM 48 °F 46 °F 89% 29.86 in 4 mi ESE 20.1 mph - - Rain Light Rain
12:00 PM 48.2 °F 46.4 °F 93% 29.86 in 4.3 mi ESE 19.6 mph - N/A Rain Rain
12:30 PM 48.2 °F 46.4 °F 93% 29.83 in 2.8 mi ESE 20.7 mph - N/A Rain Rain
1:00 PM 48 °F 47 °F 93% 29.82 in 4 mi ESE 22.4 mph - - Rain Light Rain
1:00 PM 48.2 °F 46.4 °F 93% 29.80 in 2.5 mi ESE 23.0 mph - N/A Rain Light Rain
1:30 PM 48.2 °F 46.4 °F 93% 29.80 in 3.7 mi SE 23.0 mph - N/A Rain Light Rain
2:00 PM 48 °F 47 °F 95% 29.79 in 6 mi ESE 22.4 mph - - Rain Light Rain
2:00 PM 48.2 °F 46.4 °F 93% 29.77 in 5.6 mi ESE 23.0 mph - N/A Rain Light Rain
2:30 PM 48.2 °F 48.2 °F 100% 29.77 in 5.6 mi ESE 20.7 mph - N/A Rain Light Rain
3:00 PM 48 °F 47 °F 96% 29.75 in 6 mi ESE 24.6 mph - - Rain Light Drizzle
3:00 PM 48.2 °F 46.4 °F 93% 29.74 in 6.2 mi ESE 23.0 mph 34.5 mph N/A   Light Drizzle
3:30 PM 48.2 °F 48.2 °F 100% 29.71 in 6.2 mi ESE 23.0 mph - N/A   Mostly Cloudy
4:00 PM 49 °F 48 °F 97% 29.74 in 6 mi ESE 20.1 mph - - Rain Light Drizzle
4:00 PM 50.0 °F 48.2 °F 94% 29.71 in 6.2 mi ESE 18.4 mph - N/A   Light Drizzle
4:30 PM 50.0 °F 50.0 °F 100% 29.71 in 3.7 mi ESE 17.3 mph - N/A Rain Light Rain
5:00 PM 51 °F 51 °F 98% 29.70 in 5 mi ESE 20.1 mph - - Rain Light Rain
5:00 PM 51.8 °F 50.0 °F 94% 29.68 in 5.0 mi ESE 20.7 mph - N/A Rain Light Rain
5:30 PM 51.8 °F 51.8 °F 100% 29.68 in 4.3 mi ESE 18.4 mph - N/A Rain Light Rain
6:00 PM 52 °F 51 °F 97% 29.67 in 6 mi SE 17.9 mph - - Rain Light Rain
6:00 PM 51.8 °F 51.8 °F 100% 29.65 in 6.2 mi SE 18.4 mph - N/A   Mostly Cloudy
6:30 PM 51.8 °F 51.8 °F 100% 29.65 in 6.2 mi SE 18.4 mph - N/A Rain Light Rain
7:00 PM 53 °F 52 °F 95% 29.67 in 11 mi SE 13.4 mph - - Rain Light Rain
7:00 PM 53.6 °F 51.8 °F 94% 29.65 in 6.2 mi SE 15.0 mph - N/A   Mostly Cloudy
7:30 PM 53.6 °F 51.8 °F 94% 29.65 in 5.6 mi SE 13.8 mph - N/A Rain Rain
8:00 PM 53 °F 52 °F 97% 29.65 in 6 mi SE 13.4 mph - - Rain Light Rain
8:00 PM 53.6 °F 51.8 °F 94% 29.62 in 6.2 mi SE 13.8 mph - N/A Rain Light Rain
8:30 PM 53.6 °F 53.6 °F 100% 29.65 in 6.2 mi SE 15.0 mph - N/A   Mostly Cloudy
9:00 PM 54 °F 53 °F 95% 29.65 in 9 mi SE 13.4 mph - - Rain Light Rain
9:00 PM 53.6 °F 53.6 °F 100% 29.62 in 6.2 mi SE 11.5 mph - N/A Rain Light Rain
9:30 PM 53.6 °F 53.6 °F 100% 29.59 in 6.2 mi ESE 16.1 mph - N/A Rain Light Rain
10:00 PM 54 °F 53 °F 95% 29.64 in 11 mi SSE 17.9 mph - - Rain Light Rain
10:00 PM 55.4 °F 53.6 °F 94% 29.62 in 6.2 mi SSE 18.4 mph - N/A Rain Light Rain
10:30 PM 53.6 °F 51.8 °F 94% 29.62 in 6.2 mi SSE 13.8 mph - N/A Rain Light Rain
11:00 PM 54 °F 53 °F 93% 29.64 in 8 mi SSE 11.2 mph - - Rain Light Rain
11:00 PM 53.6 °F 51.8 °F 94% 29.62 in 6.2 mi SE 11.5 mph - N/A Rain Light Rain
11:30 PM 53.6 °F 51.8 °F 94% 29.62 in 6.2 mi SE 10.4 mph - N/A Rain Light Rain